sensor_id;sensor_type;location;lat;lon;timestamp;P1;P2;P0
55857;PMS7003;41779;52.360;31.026;2023-05-06T00:01:41;8;6.2;5.4
55857;PMS7003;41779;52.360;31.026;2023-05-06T00:07:07;8;5.4;4.4
55857;PMS7003;41779;52.360;31.026;2023-05-06T00:11:23;8.6;7.2;5.8
55857;PMS7003;41779;52.360;31.026;2023-05-06T00:16:31;7.6;6.2;4.8
55857;PMS7003;41779;52.360;31.026;2023-05-06T00:21:57;8.4;6.2;5.4
55857;PMS7003;41779;52.360;31.026;2023-05-06T00:26:31;8.5;7;5.5
55857;PMS7003;41779;52.360;31.026;2023-05-06T00:31:51;7.4;5.6;5.2
55857;PMS7003;41779;52.360;31.026;2023-05-06T00:36:49;8.2;6.8;5.2
55857;PMS7003;41779;52.360;31.026;2023-05-06T00:41:33;8.6;7.4;6
55857;PMS7003;41779;52.360;31.026;2023-05-06T00:46:59;10;6.8;5.8
55857;PMS7003;41779;52.360;31.026;2023-05-06T00:52:07;8.4;6;4.6
55857;PMS7003;41779;52.360;31.026;2023-05-06T00:56:49;5.4;4.4;3.8
55857;PMS7003;41779;52.360;31.026;2023-05-06T01:01:51;5.6;4.6;3.8
55857;PMS7003;41779;52.360;31.026;2023-05-06T01:07:00;6;4;3.2
55857;PMS7003;41779;52.360;31.026;2023-05-06T01:11:58;4.6;3.2;2.2
55857;PMS7003;41779;52.360;31.026;2023-05-06T01:16:31;3.8;2.8;1.8
55857;PMS7003;41779;52.360;31.026;2023-05-06T01:21:57;3.8;2.8;2.6
55857;PMS7003;41779;52.360;31.026;2023-05-06T01:27:05;4;2.5;2.5
55857;PMS7003;41779;52.360;31.026;2023-05-06T01:32:15;3.6;2.8;2.8
55857;PMS7003;41779;52.360;31.026;2023-05-06T01:36:52;4.2;2.8;2.2
55857;PMS7003;41779;52.360;31.026;2023-05-06T01:42:05;3;2.6;2.2
55857;PMS7003;41779;52.360;31.026;2023-05-06T01:46:59;3.8;2.8;2.4
55857;PMS7003;41779;52.360;31.026;2023-05-06T01:51:35;5.8;3.2;2.4
55857;PMS7003;41779;52.360;31.026;2023-05-06T01:56:53;5.2;3.4;3.2
55857;PMS7003;41779;52.360;31.026;2023-05-06T02:02:07;3;2.6;2.2
55857;PMS7003;41779;52.360;31.026;2023-05-06T02:06:35;6.4;4;3.4
55857;PMS7003;41779;52.360;31.026;2023-05-06T02:11:57;5.4;3.8;2.6
55857;PMS7003;41779;52.360;31.026;2023-05-06T02:17:07;2.8;2.4;1.8
55857;PMS7003;41779;52.360;31.026;2023-05-06T02:21:43;3.8;2.6;2.2
55857;PMS7003;41779;52.360;31.026;2023-05-06T02:26:23;4.8;3;2.5
55857;PMS7003;41779;52.360;31.026;2023-05-06T02:31:33;3.8;2.4;2
55857;PMS7003;41779;52.360;31.026;2023-05-06T02:36:23;5.5;2.8;2.8
55857;PMS7003;41779;52.360;31.026;2023-05-06T02:41:59;4.2;2.4;2
55857;PMS7003;41779;52.360;31.026;2023-05-06T02:46:49;4.5;2.8;2.3
55857;PMS7003;41779;52.360;31.026;2023-05-06T02:51:35;4;2;1.8
55857;PMS7003;41779;52.360;31.026;2023-05-06T02:56:51;4;2.6;2.2
55857;PMS7003;41779;52.360;31.026;2023-05-06T03:02:07;6;3.8;3.2
55857;PMS7003;41779;52.360;31.026;2023-05-06T03:06:41;2.8;2.6;1.8
55857;PMS7003;41779;52.360;31.026;2023-05-06T03:11:43;2.6;2;1.6
55857;PMS7003;41779;52.360;31.026;2023-05-06T03:16:35;3.4;2.8;2.2
55857;PMS7003;41779;52.360;31.026;2023-05-06T03:22:07;5.5;3.3;1.8
55857;PMS7003;41779;52.360;31.026;2023-05-06T03:26:43;3.8;2.4;1.6
55857;PMS7003;41779;52.360;31.026;2023-05-06T03:31:35;1.8;1.8;1.4
55857;PMS7003;41779;52.360;31.026;2023-05-06T03:37:09;4.6;2;1.2
55857;PMS7003;41779;52.360;31.026;2023-05-06T03:41:47;4.2;2.8;1.8
55857;PMS7003;41779;52.360;31.026;2023-05-06T03:46:35;2.8;2;1.4
55857;PMS7003;41779;52.360;31.026;2023-05-06T03:51:59;2;1.6;1.2
55857;PMS7003;41779;52.360;31.026;2023-05-06T03:56:49;2.4;1.6;1.2
55857;PMS7003;41779;52.360;31.026;2023-05-06T04:01:23;2.6;1.4;1
55857;PMS7003;41779;52.360;31.026;2023-05-06T04:07:07;2;1.4;1.4
55857;PMS7003;41779;52.360;31.026;2023-05-06T04:12:05;3.6;1.8;1.8
55857;PMS7003;41779;52.360;31.026;2023-05-06T04:16:21;3;1.4;1.4
55857;PMS7003;41779;52.360;31.026;2023-05-06T04:21:23;1.8;1.2;1
55857;PMS7003;41779;52.360;31.026;2023-05-06T04:26:57;2.8;1.5;1
55857;PMS7003;41779;52.360;31.026;2023-05-06T04:31:51;1.2;0.6;0.4
55857;PMS7003;41779;52.360;31.026;2023-05-06T04:36:59;2.8;1.6;1.2
55857;PMS7003;41779;52.360;31.026;2023-05-06T04:41:49;1.4;1;0.8
55857;PMS7003;41779;52.360;31.026;2023-05-06T04:47:05;1.8;1.2;1
55857;PMS7003;41779;52.360;31.026;2023-05-06T04:51:45;1.8;0.8;0.8
55857;PMS7003;41779;52.360;31.026;2023-05-06T04:56:23;1;0.8;0.8
55857;PMS7003;41779;52.360;31.026;2023-05-06T05:01:41;1;1;0.6
55857;PMS7003;41779;52.360;31.026;2023-05-06T05:07:07;2;1.2;1.2
55857;PMS7003;41779;52.360;31.026;2023-05-06T05:11:35;1.4;1.4;1.2
55857;PMS7003;41779;52.360;31.026;2023-05-06T05:16:57;2.4;1;1
55857;PMS7003;41779;52.360;31.026;2023-05-06T05:22:07;2.4;1;1
55857;PMS7003;41779;52.360;31.026;2023-05-06T05:26:23;4.5;2.3;1.5
55857;PMS7003;41779;52.360;31.026;2023-05-06T05:31:39;2.4;1;0.8
55857;PMS7003;41779;52.360;31.026;2023-05-06T05:36:23;2;1.2;0.8
55857;PMS7003;41779;52.360;31.026;2023-05-06T05:41:21;1.2;0.8;0.8
55857;PMS7003;41779;52.360;31.026;2023-05-06T05:46:45;1.8;1.2;1
55857;PMS7003;41779;52.360;31.026;2023-05-06T05:52:07;1.6;0.8;0.8
55857;PMS7003;41779;52.360;31.026;2023-05-06T05:56:47;1.8;1.2;1.2
55857;PMS7003;41779;52.360;31.026;2023-05-06T06:01:43;1.6;1.2;1.2
55857;PMS7003;41779;52.360;31.026;2023-05-06T06:06:57;0.8;0.6;0.6
55857;PMS7003;41779;52.360;31.026;2023-05-06T06:11:39;1.2;0.4;0.4
55857;PMS7003;41779;52.360;31.026;2023-05-06T06:16:43;0.6;0.6;0.6
55857;PMS7003;41779;52.360;31.026;2023-05-06T06:21:23;2.4;0.6;0.6
55857;PMS7003;41779;52.360;31.026;2023-05-06T06:27:07;1;0.5;0.5
55857;PMS7003;41779;52.360;31.026;2023-05-06T06:31:23;0.8;0.4;0.2
55857;PMS7003;41779;52.360;31.026;2023-05-06T06:36:23;0.4;0.2;0.2
55857;PMS7003;41779;52.360;31.026;2023-05-06T06:42:07;0.8;0.4;0
55857;PMS7003;41779;52.360;31.026;2023-05-06T06:46:49;0.6;0.4;0.4
55857;PMS7003;41779;52.360;31.026;2023-05-06T06:51:23;0.4;0;0
55857;PMS7003;41779;52.360;31.026;2023-05-06T06:56:23;0.4;0.4;0.2
55857;PMS7003;41779;52.360;31.026;2023-05-06T07:02:07;0.3;0.3;0.3
55857;PMS7003;41779;52.360;31.026;2023-05-06T07:06:35;0.4;0.2;0.2
55857;PMS7003;41779;52.360;31.026;2023-05-06T07:12:07;1.2;1;0.8
55857;PMS7003;41779;52.360;31.026;2023-05-06T07:17:07;0.4;0.2;0.2
55857;PMS7003;41779;52.360;31.026;2023-05-06T07:21:23;0.8;0.6;0.2
55857;PMS7003;41779;52.360;31.026;2023-05-06T07:26:59;1.3;0.8;0.8
55857;PMS7003;41779;52.360;31.026;2023-05-06T07:31:57;0.2;0.2;0.2
55857;PMS7003;41779;52.360;31.026;2023-05-06T07:36:51;0.8;0.6;0.6
55857;PMS7003;41779;52.360;31.026;2023-05-06T07:41:59;0.8;0.8;0.8
55857;PMS7003;41779;52.360;31.026;2023-05-06T07:46:47;2.4;1.2;1.2
55857;PMS7003;41779;52.360;31.026;2023-05-06T16:11:41;0.7;0.7;0.7
55857;PMS7003;41779;52.360;31.026;2023-05-06T16:17:09;2;2;1.8
55857;PMS7003;41779;52.360;31.026;2023-05-06T21:41:45;2;2;1.8
55857;PMS7003;41779;52.360;31.026;2023-05-06T21:46:49;2.4;1.8;1.4
55857;PMS7003;41779;52.360;31.026;2023-05-06T21:51:35;4.4;2.8;2.4
55857;PMS7003;41779;52.360;31.026;2023-05-06T21:57:01;3.8;2.3;2
55857;PMS7003;41779;52.360;31.026;2023-05-06T22:01:23;5.8;3.6;2.8
55857;PMS7003;41779;52.360;31.026;2023-05-06T22:06:41;3;2.4;1.6
55857;PMS7003;41779;52.360;31.026;2023-05-06T22:11:53;3.6;2.6;2
55857;PMS7003;41779;52.360;31.026;2023-05-06T22:17:09;2;1.5;1.5
55857;PMS7003;41779;52.360;31.026;2023-05-06T22:21:35;4.4;1.2;1.2
55857;PMS7003;41779;52.360;31.026;2023-05-06T22:26:45;3.6;2.2;2
55857;PMS7003;41779;52.360;31.026;2023-05-06T22:31:23;2.6;1.6;1.6
55857;PMS7003;41779;52.360;31.026;2023-05-06T22:37:09;3;1.6;1.4
55857;PMS7003;41779;52.360;31.026;2023-05-06T22:41:45;2.2;1.6;1.4
55857;PMS7003;41779;52.360;31.026;2023-05-06T22:46:23;3.4;1.6;1.2
55857;PMS7003;41779;52.360;31.026;2023-05-06T22:52:11;3.2;2;1.4
55857;PMS7003;41779;52.360;31.026;2023-05-06T22:56:23;2;1.4;1.2
55857;PMS7003;41779;52.360;31.026;2023-05-06T23:01:41;2.4;1.6;1.2
55857;PMS7003;41779;52.360;31.026;2023-05-06T23:07:01;3.4;1.4;1
55857;PMS7003;41779;52.360;31.026;2023-05-06T23:12:09;2.8;2;1.6
55857;PMS7003;41779;52.360;31.026;2023-05-06T23:17:01;2.5;1.8;1.8
55857;PMS7003;41779;52.360;31.026;2023-05-06T23:21:51;3.4;2;1.6
